sensor_id;sensor_type;location;lat;lon;timestamp;P1;durP1;ratioP1;P2;durP2;ratioP2
24685;SDS011;12804;51.176;4.452;2023-02-01T00:00:36;28.05;;;6.30;;
24685;SDS011;12804;51.176;4.452;2023-02-01T00:03:02;19.67;;;6.03;;
24685;SDS011;12804;51.176;4.452;2023-02-01T00:05:28;22.67;;;6.43;;
24685;SDS011;12804;51.176;4.452;2023-02-01T00:07:54;21.17;;;6.47;;
24685;SDS011;12804;51.176;4.452;2023-02-01T00:10:19;20.48;;;6.15;;
24685;SDS011;12804;51.176;4.452;2023-02-01T00:12:45;19.70;;;6.03;;
24685;SDS011;12804;51.176;4.452;2023-02-01T00:15:11;20.48;;;6.18;;
24685;SDS011;12804;51.176;4.452;2023-02-01T00:17:37;20.58;;;6.18;;
24685;SDS011;12804;51.176;4.452;2023-02-01T00:20:03;22.30;;;6.78;;
24685;SDS011;12804;51.176;4.452;2023-02-01T00:22:29;20.55;;;6.38;;
24685;SDS011;12804;51.176;4.452;2023-02-01T00:24:55;18.95;;;6.47;;
24685;SDS011;12804;51.176;4.452;2023-02-01T00:27:21;24.83;;;6.05;;
24685;SDS011;12804;51.176;4.452;2023-02-01T00:29:47;29.60;;;6.85;;
24685;SDS011;12804;51.176;4.452;2023-02-01T00:32:13;20.48;;;7.15;;
24685;SDS011;12804;51.176;4.452;2023-02-01T00:34:38;20.98;;;6.50;;
24685;SDS011;12804;51.176;4.452;2023-02-01T00:37:04;22.55;;;6.28;;
24685;SDS011;12804;51.176;4.452;2023-02-01T00:39:30;25.23;;;6.22;;
24685;SDS011;12804;51.176;4.452;2023-02-01T00:41:56;21.77;;;6.65;;
24685;SDS011;12804;51.176;4.452;2023-02-01T00:44:22;18.52;;;6.97;;
24685;SDS011;12804;51.176;4.452;2023-02-01T00:46:47;27.42;;;7.60;;
24685;SDS011;12804;51.176;4.452;2023-02-01T00:49:13;18.92;;;6.65;;
24685;SDS011;12804;51.176;4.452;2023-02-01T00:51:39;22.45;;;6.13;;
24685;SDS011;12804;51.176;4.452;2023-02-01T00:54:05;25.52;;;6.45;;
24685;SDS011;12804;51.176;4.452;2023-02-01T00:56:31;23.95;;;6.90;;
24685;SDS011;12804;51.176;4.452;2023-02-01T00:58:56;20.45;;;6.95;;
24685;SDS011;12804;51.176;4.452;2023-02-01T01:01:23;18.90;;;5.93;;
24685;SDS011;12804;51.176;4.452;2023-02-01T01:03:51;26.00;;;6.63;;
24685;SDS011;12804;51.176;4.452;2023-02-01T01:06:24;20.95;;;5.95;;
24685;SDS011;12804;51.176;4.452;2023-02-01T01:08:58;27.65;;;6.30;;
24685;SDS011;12804;51.176;4.452;2023-02-01T01:11:27;28.23;;;6.00;;
24685;SDS011;12804;51.176;4.452;2023-02-01T01:13:55;23.63;;;6.63;;
24685;SDS011;12804;51.176;4.452;2023-02-01T01:16:22;26.75;;;6.47;;
24685;SDS011;12804;51.176;4.452;2023-02-01T01:18:50;24.42;;;6.07;;
24685;SDS011;12804;51.176;4.452;2023-02-01T01:21:16;23.20;;;7.15;;
24685;SDS011;12804;51.176;4.452;2023-02-01T01:23:42;22.50;;;6.78;;
24685;SDS011;12804;51.176;4.452;2023-02-01T01:26:11;27.80;;;5.78;;
24685;SDS011;12804;51.176;4.452;2023-02-01T01:28:40;25.00;;;6.38;;
24685;SDS011;12804;51.176;4.452;2023-02-01T01:31:09;23.52;;;6.10;;
24685;SDS011;12804;51.176;4.452;2023-02-01T01:33:36;21.65;;;5.65;;
24685;SDS011;12804;51.176;4.452;2023-02-01T01:36:04;23.42;;;5.72;;
24685;SDS011;12804;51.176;4.452;2023-02-01T01:38:30;22.63;;;5.47;;
24685;SDS011;12804;51.176;4.452;2023-02-01T01:40:57;20.80;;;5.60;;
24685;SDS011;12804;51.176;4.452;2023-02-01T01:43:23;18.83;;;4.88;;
24685;SDS011;12804;51.176;4.452;2023-02-01T01:45:51;23.75;;;5.07;;
24685;SDS011;12804;51.176;4.452;2023-02-01T01:48:19;26.08;;;4.72;;
24685;SDS011;12804;51.176;4.452;2023-02-01T01:50:58;15.27;;;3.97;;
24685;SDS011;12804;51.176;4.452;2023-02-01T01:53:31;23.73;;;5.00;;
24685;SDS011;12804;51.176;4.452;2023-02-01T01:58:26;19.35;;;3.95;;
24685;SDS011;12804;51.176;4.452;2023-02-01T02:00:55;18.90;;;3.95;;
24685;SDS011;12804;51.176;4.452;2023-02-01T02:03:22;20.58;;;3.35;;
24685;SDS011;12804;51.176;4.452;2023-02-01T02:05:54;17.58;;;3.47;;
24685;SDS011;12804;51.176;4.452;2023-02-01T02:08:24;19.83;;;3.42;;
24685;SDS011;12804;51.176;4.452;2023-02-01T02:10:51;20.67;;;4.40;;
24685;SDS011;12804;51.176;4.452;2023-02-01T02:13:34;20.15;;;4.22;;
24685;SDS011;12804;51.176;4.452;2023-02-01T02:19:04;14.25;;;3.47;;
24685;SDS011;12804;51.176;4.452;2023-02-01T02:35:28;21.13;;;4.15;;
24685;SDS011;12804;51.176;4.452;2023-02-01T02:38:50;23.58;;;4.53;;
24685;SDS011;12804;51.176;4.452;2023-02-01T02:41:08;20.92;;;4.90;;
24685;SDS011;12804;51.176;4.452;2023-02-01T02:43:39;16.83;;;4.10;;
24685;SDS011;12804;51.176;4.452;2023-02-01T02:46:28;16.35;;;4.00;;
24685;SDS011;12804;51.176;4.452;2023-02-01T02:49:39;20.80;;;4.88;;
24685;SDS011;12804;51.176;4.452;2023-02-01T02:52:31;22.92;;;4.07;;
24685;SDS011;12804;51.176;4.452;2023-02-01T02:55:17;16.73;;;3.83;;
24685;SDS011;12804;51.176;4.452;2023-02-01T02:57:45;19.77;;;3.90;;
24685;SDS011;12804;51.176;4.452;2023-02-01T03:00:31;14.45;;;4.00;;
24685;SDS011;12804;51.176;4.452;2023-02-01T03:03:17;18.30;;;4.15;;
24685;SDS011;12804;51.176;4.452;2023-02-01T03:06:02;24.58;;;4.57;;
24685;SDS011;12804;51.176;4.452;2023-02-01T03:08:29;21.27;;;4.57;;
24685;SDS011;12804;51.176;4.452;2023-02-01T03:11:02;19.42;;;3.83;;
24685;SDS011;12804;51.176;4.452;2023-02-01T03:16:22;18.33;;;4.03;;
24685;SDS011;12804;51.176;4.452;2023-02-01T03:18:55;16.95;;;3.47;;
24685;SDS011;12804;51.176;4.452;2023-02-01T03:26:48;12.02;;;3.47;;
24685;SDS011;12804;51.176;4.452;2023-02-01T03:29:21;17.05;;;3.47;;
24685;SDS011;12804;51.176;4.452;2023-02-01T03:31:52;17.48;;;3.47;;
24685;SDS011;12804;51.176;4.452;2023-02-01T03:34:18;16.20;;;3.10;;
24685;SDS011;12804;51.176;4.452;2023-02-01T03:36:52;15.68;;;3.05;;
24685;SDS011;12804;51.176;4.452;2023-02-01T03:39:39;17.13;;;3.28;;
24685;SDS011;12804;51.176;4.452;2023-02-01T03:42:14;14.88;;;3.17;;
24685;SDS011;12804;51.176;4.452;2023-02-01T03:47:47;14.57;;;3.30;;
24685;SDS011;12804;51.176;4.452;2023-02-01T03:50:19;20.95;;;3.45;;
24685;SDS011;12804;51.176;4.452;2023-02-01T03:52:52;24.67;;;4.22;;
24685;SDS011;12804;51.176;4.452;2023-02-01T03:55:31;19.60;;;3.47;;
24685;SDS011;12804;51.176;4.452;2023-02-01T03:58:19;17.92;;;3.47;;
24685;SDS011;12804;51.176;4.452;2023-02-01T04:00:52;17.50;;;3.03;;
24685;SDS011;12804;51.176;4.452;2023-02-01T04:03:20;16.30;;;3.30;;
24685;SDS011;12804;51.176;4.452;2023-02-01T04:05:47;14.85;;;3.80;;
24685;SDS011;12804;51.176;4.452;2023-02-01T04:08:14;18.02;;;3.75;;
24685;SDS011;12804;51.176;4.452;2023-02-01T04:10:40;23.55;;;3.45;;
24685;SDS011;12804;51.176;4.452;2023-02-01T04:13:07;24.40;;;4.07;;
24685;SDS011;12804;51.176;4.452;2023-02-01T04:15:32;22.65;;;4.00;;
24685;SDS011;12804;51.176;4.452;2023-02-01T04:17:59;20.85;;;3.85;;
24685;SDS011;12804;51.176;4.452;2023-02-01T04:20:25;20.20;;;3.47;;
24685;SDS011;12804;51.176;4.452;2023-02-01T04:22:51;16.55;;;3.53;;
24685;SDS011;12804;51.176;4.452;2023-02-01T04:25:17;23.08;;;4.28;;
24685;SDS011;12804;51.176;4.452;2023-02-01T04:27:45;18.98;;;3.88;;
24685;SDS011;12804;51.176;4.452;2023-02-01T04:30:11;19.27;;;3.63;;
24685;SDS011;12804;51.176;4.452;2023-02-01T04:32:38;19.38;;;3.30;;
24685;SDS011;12804;51.176;4.452;2023-02-01T04:35:04;19.50;;;3.58;;
24685;SDS011;12804;51.176;4.452;2023-02-01T04:37:31;20.23;;;4.15;;
24685;SDS011;12804;51.176;4.452;2023-02-01T04:39:56;18.45;;;4.18;;
24685;SDS011;12804;51.176;4.452;2023-02-01T04:42:22;24.33;;;4.38;;
24685;SDS011;12804;51.176;4.452;2023-02-01T04:44:48;14.73;;;3.50;;
24685;SDS011;12804;51.176;4.452;2023-02-01T04:47:14;18.25;;;4.10;;
24685;SDS011;12804;51.176;4.452;2023-02-01T04:49:40;18.65;;;3.75;;
24685;SDS011;12804;51.176;4.452;2023-02-01T04:52:07;13.98;;;3.38;;
24685;SDS011;12804;51.176;4.452;2023-02-01T04:54:33;23.05;;;4.10;;
24685;SDS011;12804;51.176;4.452;2023-02-01T04:56:59;21.45;;;3.65;;
24685;SDS011;12804;51.176;4.452;2023-02-01T04:59:25;20.80;;;3.67;;
24685;SDS011;12804;51.176;4.452;2023-02-01T05:01:51;26.70;;;4.03;;
24685;SDS011;12804;51.176;4.452;2023-02-01T05:04:17;24.42;;;4.18;;
24685;SDS011;12804;51.176;4.452;2023-02-01T05:06:44;19.25;;;3.40;;
24685;SDS011;12804;51.176;4.452;2023-02-01T05:09:10;18.95;;;3.88;;
24685;SDS011;12804;51.176;4.452;2023-02-01T05:11:36;22.92;;;3.92;;
24685;SDS011;12804;51.176;4.452;2023-02-01T05:14:20;27.98;;;4.55;;
24685;SDS011;12804;51.176;4.452;2023-02-01T05:16:46;19.48;;;3.90;;
24685;SDS011;12804;51.176;4.452;2023-02-01T05:19:12;18.65;;;3.97;;
24685;SDS011;12804;51.176;4.452;2023-02-01T05:21:38;16.15;;;3.47;;
24685;SDS011;12804;51.176;4.452;2023-02-01T05:24:04;24.33;;;4.30;;
24685;SDS011;12804;51.176;4.452;2023-02-01T05:26:38;17.15;;;3.40;;
24685;SDS011;12804;51.176;4.452;2023-02-01T05:29:06;22.58;;;3.97;;
24685;SDS011;12804;51.176;4.452;2023-02-01T05:31:32;24.13;;;4.50;;
24685;SDS011;12804;51.176;4.452;2023-02-01T05:33:58;24.17;;;3.42;;
24685;SDS011;12804;51.176;4.452;2023-02-01T05:36:24;19.00;;;3.33;;
24685;SDS011;12804;51.176;4.452;2023-02-01T05:38:50;24.77;;;3.63;;
24685;SDS011;12804;51.176;4.452;2023-02-01T05:41:16;17.40;;;3.67;;
24685;SDS011;12804;51.176;4.452;2023-02-01T05:43:42;19.40;;;4.38;;
24685;SDS011;12804;51.176;4.452;2023-02-01T05:46:07;20.38;;;3.45;;
24685;SDS011;12804;51.176;4.452;2023-02-01T05:48:35;20.65;;;3.88;;
24685;SDS011;12804;51.176;4.452;2023-02-01T05:51:01;20.90;;;3.45;;
24685;SDS011;12804;51.176;4.452;2023-02-01T05:53:27;15.52;;;3.25;;
24685;SDS011;12804;51.176;4.452;2023-02-01T05:55:53;18.60;;;3.65;;
24685;SDS011;12804;51.176;4.452;2023-02-01T05:58:19;20.80;;;4.00;;
24685;SDS011;12804;51.176;4.452;2023-02-01T06:00:44;22.23;;;4.00;;
24685;SDS011;12804;51.176;4.452;2023-02-01T06:03:11;28.98;;;4.30;;
24685;SDS011;12804;51.176;4.452;2023-02-01T06:05:36;23.60;;;4.18;;
24685;SDS011;12804;51.176;4.452;2023-02-01T06:08:02;18.35;;;3.65;;
24685;SDS011;12804;51.176;4.452;2023-02-01T06:10:28;21.20;;;3.63;;
24685;SDS011;12804;51.176;4.452;2023-02-01T06:12:54;20.55;;;3.85;;
24685;SDS011;12804;51.176;4.452;2023-02-01T06:15:20;21.88;;;3.60;;
24685;SDS011;12804;51.176;4.452;2023-02-01T06:17:46;22.10;;;3.75;;
24685;SDS011;12804;51.176;4.452;2023-02-01T06:20:12;25.13;;;4.15;;
24685;SDS011;12804;51.176;4.452;2023-02-01T06:22:40;20.48;;;3.90;;
24685;SDS011;12804;51.176;4.452;2023-02-01T06:25:06;25.17;;;4.65;;
24685;SDS011;12804;51.176;4.452;2023-02-01T06:27:34;24.80;;;3.95;;
24685;SDS011;12804;51.176;4.452;2023-02-01T06:30:00;20.35;;;3.92;;
24685;SDS011;12804;51.176;4.452;2023-02-01T06:32:27;20.58;;;3.60;;
24685;SDS011;12804;51.176;4.452;2023-02-01T06:34:53;20.55;;;4.15;;
24685;SDS011;12804;51.176;4.452;2023-02-01T06:37:21;18.13;;;3.45;;
24685;SDS011;12804;51.176;4.452;2023-02-01T06:39:48;17.35;;;4.30;;
24685;SDS011;12804;51.176;4.452;2023-02-01T06:42:14;20.52;;;3.58;;
24685;SDS011;12804;51.176;4.452;2023-02-01T06:44:40;20.10;;;3.70;;
24685;SDS011;12804;51.176;4.452;2023-02-01T06:47:06;18.52;;;3.08;;
24685;SDS011;12804;51.176;4.452;2023-02-01T06:49:32;21.25;;;3.83;;
24685;SDS011;12804;51.176;4.452;2023-02-01T06:51:58;20.45;;;3.58;;
24685;SDS011;12804;51.176;4.452;2023-02-01T06:54:26;21.15;;;4.97;;
24685;SDS011;12804;51.176;4.452;2023-02-01T06:56:52;22.35;;;3.70;;
24685;SDS011;12804;51.176;4.452;2023-02-01T06:59:18;21.27;;;3.80;;
24685;SDS011;12804;51.176;4.452;2023-02-01T07:01:44;18.55;;;3.50;;
24685;SDS011;12804;51.176;4.452;2023-02-01T07:04:11;18.65;;;3.90;;
24685;SDS011;12804;51.176;4.452;2023-02-01T07:06:37;20.80;;;3.95;;
24685;SDS011;12804;51.176;4.452;2023-02-01T07:09:04;22.40;;;4.35;;
24685;SDS011;12804;51.176;4.452;2023-02-01T07:11:30;14.10;;;3.92;;
24685;SDS011;12804;51.176;4.452;2023-02-01T07:13:57;19.42;;;4.20;;
24685;SDS011;12804;51.176;4.452;2023-02-01T07:16:23;22.48;;;4.15;;
24685;SDS011;12804;51.176;4.452;2023-02-01T07:18:50;20.05;;;3.22;;
24685;SDS011;12804;51.176;4.452;2023-02-01T07:21:17;21.45;;;4.50;;
24685;SDS011;12804;51.176;4.452;2023-02-01T07:23:43;20.48;;;3.92;;
24685;SDS011;12804;51.176;4.452;2023-02-01T07:26:09;23.35;;;3.70;;
24685;SDS011;12804;51.176;4.452;2023-02-01T07:28:41;14.63;;;3.42;;
24685;SDS011;12804;51.176;4.452;2023-02-01T07:31:09;24.05;;;4.03;;
24685;SDS011;12804;51.176;4.452;2023-02-01T07:33:37;22.83;;;4.18;;
24685;SDS011;12804;51.176;4.452;2023-02-01T07:36:03;25.02;;;3.38;;
24685;SDS011;12804;51.176;4.452;2023-02-01T07:38:31;21.65;;;3.78;;
24685;SDS011;12804;51.176;4.452;2023-02-01T07:41:00;17.83;;;3.22;;
24685;SDS011;12804;51.176;4.452;2023-02-01T07:43:28;20.25;;;3.70;;
24685;SDS011;12804;51.176;4.452;2023-02-01T07:45:54;23.92;;;3.40;;
24685;SDS011;12804;51.176;4.452;2023-02-01T07:48:21;20.98;;;4.45;;
24685;SDS011;12804;51.176;4.452;2023-02-01T07:50:48;18.77;;;4.15;;
24685;SDS011;12804;51.176;4.452;2023-02-01T07:53:14;22.58;;;4.15;;
24685;SDS011;12804;51.176;4.452;2023-02-01T07:55:40;19.77;;;3.72;;
24685;SDS011;12804;51.176;4.452;2023-02-01T07:58:06;22.05;;;4.38;;
24685;SDS011;12804;51.176;4.452;2023-02-01T08:00:32;19.63;;;4.32;;
24685;SDS011;12804;51.176;4.452;2023-02-01T08:03:16;18.05;;;3.67;;
24685;SDS011;12804;51.176;4.452;2023-02-01T08:05:42;22.50;;;3.97;;
24685;SDS011;12804;51.176;4.452;2023-02-01T08:08:08;18.10;;;3.92;;
24685;SDS011;12804;51.176;4.452;2023-02-01T08:10:34;21.15;;;4.00;;
24685;SDS011;12804;51.176;4.452;2023-02-01T08:13:00;20.80;;;3.92;;
24685;SDS011;12804;51.176;4.452;2023-02-01T08:15:27;23.38;;;4.32;;
24685;SDS011;12804;51.176;4.452;2023-02-01T08:17:54;19.48;;;3.85;;
24685;SDS011;12804;51.176;4.452;2023-02-01T08:20:20;20.77;;;3.80;;
24685;SDS011;12804;51.176;4.452;2023-02-01T08:22:48;17.65;;;4.00;;
24685;SDS011;12804;51.176;4.452;2023-02-01T08:25:17;22.83;;;3.92;;
24685;SDS011;12804;51.176;4.452;2023-02-01T08:27:43;14.43;;;3.38;;
24685;SDS011;12804;51.176;4.452;2023-02-01T08:30:10;24.10;;;4.03;;
24685;SDS011;12804;51.176;4.452;2023-02-01T08:32:36;19.90;;;4.05;;
24685;SDS011;12804;51.176;4.452;2023-02-01T08:35:03;21.30;;;3.92;;
24685;SDS011;12804;51.176;4.452;2023-02-01T08:37:29;18.00;;;3.97;;
24685;SDS011;12804;51.176;4.452;2023-02-01T08:39:55;20.30;;;4.03;;
24685;SDS011;12804;51.176;4.452;2023-02-01T08:42:21;16.23;;;3.67;;
24685;SDS011;12804;51.176;4.452;2023-02-01T08:45:06;26.65;;;4.35;;
24685;SDS011;12804;51.176;4.452;2023-02-01T08:47:33;19.90;;;3.67;;
24685;SDS011;12804;51.176;4.452;2023-02-01T08:49:59;22.70;;;3.90;;
24685;SDS011;12804;51.176;4.452;2023-02-01T08:52:25;23.60;;;4.35;;
24685;SDS011;12804;51.176;4.452;2023-02-01T08:54:51;19.77;;;4.00;;
24685;SDS011;12804;51.176;4.452;2023-02-01T08:57:17;21.45;;;3.95;;
24685;SDS011;12804;51.176;4.452;2023-02-01T08:59:43;25.00;;;4.82;;
24685;SDS011;12804;51.176;4.452;2023-02-01T09:02:12;23.00;;;4.80;;
24685;SDS011;12804;51.176;4.452;2023-02-01T09:04:40;22.65;;;4.03;;
24685;SDS011;12804;51.176;4.452;2023-02-01T09:07:07;20.90;;;3.90;;
24685;SDS011;12804;51.176;4.452;2023-02-01T09:09:33;19.90;;;4.80;;
24685;SDS011;12804;51.176;4.452;2023-02-01T09:11:59;19.63;;;4.43;;
24685;SDS011;12804;51.176;4.452;2023-02-01T09:14:25;21.48;;;3.88;;
24685;SDS011;12804;51.176;4.452;2023-02-01T09:16:51;23.75;;;4.95;;
24685;SDS011;12804;51.176;4.452;2023-02-01T09:19:16;25.70;;;4.68;;
24685;SDS011;12804;51.176;4.452;2023-02-01T09:21:42;17.02;;;5.07;;
24685;SDS011;12804;51.176;4.452;2023-02-01T09:24:11;18.20;;;4.18;;
24685;SDS011;12804;51.176;4.452;2023-02-01T09:26:37;20.77;;;4.13;;
24685;SDS011;12804;51.176;4.452;2023-02-01T09:29:03;24.48;;;4.53;;
24685;SDS011;12804;51.176;4.452;2023-02-01T09:31:38;17.42;;;3.92;;
24685;SDS011;12804;51.176;4.452;2023-02-01T09:34:05;18.95;;;4.28;;
24685;SDS011;12804;51.176;4.452;2023-02-01T09:36:32;20.23;;;3.60;;
24685;SDS011;12804;51.176;4.452;2023-02-01T09:38:58;22.30;;;4.22;;
24685;SDS011;12804;51.176;4.452;2023-02-01T09:41:40;16.58;;;3.78;;
24685;SDS011;12804;51.176;4.452;2023-02-01T09:46:44;20.35;;;3.40;;
24685;SDS011;12804;51.176;4.452;2023-02-01T09:49:21;17.60;;;3.80;;
24685;SDS011;12804;51.176;4.452;2023-02-01T09:51:52;22.60;;;4.20;;
24685;SDS011;12804;51.176;4.452;2023-02-01T09:54:20;20.92;;;3.22;;
24685;SDS011;12804;51.176;4.452;2023-02-01T09:57:04;22.95;;;4.30;;
24685;SDS011;12804;51.176;4.452;2023-02-01T09:59:46;18.02;;;4.00;;
24685;SDS011;12804;51.176;4.452;2023-02-01T10:02:17;15.68;;;3.58;;
24685;SDS011;12804;51.176;4.452;2023-02-01T10:04:57;20.05;;;4.00;;
24685;SDS011;12804;51.176;4.452;2023-02-01T10:07:46;18.77;;;4.20;;
24685;SDS011;12804;51.176;4.452;2023-02-01T10:10:49;15.65;;;3.20;;
24685;SDS011;12804;51.176;4.452;2023-02-01T10:18:51;21.23;;;3.40;;
24685;SDS011;12804;51.176;4.452;2023-02-01T10:21:28;14.60;;;3.28;;
24685;SDS011;12804;51.176;4.452;2023-02-01T10:26:46;19.08;;;3.33;;
24685;SDS011;12804;51.176;4.452;2023-02-01T10:29:31;14.55;;;3.40;;
24685;SDS011;12804;51.176;4.452;2023-02-01T10:32:01;11.55;;;3.10;;
24685;SDS011;12804;51.176;4.452;2023-02-01T10:34:30;16.02;;;3.28;;
24685;SDS011;12804;51.176;4.452;2023-02-01T10:37:20;13.10;;;3.22;;
24685;SDS011;12804;51.176;4.452;2023-02-01T10:39:57;11.15;;;3.13;;
24685;SDS011;12804;51.176;4.452;2023-02-01T10:42:27;15.70;;;3.17;;
24685;SDS011;12804;51.176;4.452;2023-02-01T10:44:58;15.55;;;3.17;;
24685;SDS011;12804;51.176;4.452;2023-02-01T10:47:26;12.85;;;2.75;;
24685;SDS011;12804;51.176;4.452;2023-02-01T10:49:55;13.45;;;2.83;;
24685;SDS011;12804;51.176;4.452;2023-02-01T10:52:42;10.05;;;2.83;;
24685;SDS011;12804;51.176;4.452;2023-02-01T10:58:07;9.73;;;2.22;;
24685;SDS011;12804;51.176;4.452;2023-02-01T11:01:15;8.80;;;2.10;;
24685;SDS011;12804;51.176;4.452;2023-02-01T11:03:36;12.20;;;2.22;;
24685;SDS011;12804;51.176;4.452;2023-02-01T11:06:08;17.10;;;2.60;;
24685;SDS011;12804;51.176;4.452;2023-02-01T11:08:41;10.07;;;2.00;;
24685;SDS011;12804;51.176;4.452;2023-02-01T11:11:09;11.60;;;2.40;;
24685;SDS011;12804;51.176;4.452;2023-02-01T11:13:37;15.70;;;2.22;;
24685;SDS011;12804;51.176;4.452;2023-02-01T11:16:05;14.63;;;1.92;;
24685;SDS011;12804;51.176;4.452;2023-02-01T11:18:35;11.40;;;2.00;;
24685;SDS011;12804;51.176;4.452;2023-02-01T11:21:02;17.60;;;3.00;;
24685;SDS011;12804;51.176;4.452;2023-02-01T11:23:29;12.00;;;2.17;;
24685;SDS011;12804;51.176;4.452;2023-02-01T11:25:59;12.95;;;1.80;;
24685;SDS011;12804;51.176;4.452;2023-02-01T11:28:29;11.57;;;2.42;;
24685;SDS011;12804;51.176;4.452;2023-02-01T11:31:18;12.05;;;2.22;;
24685;SDS011;12804;51.176;4.452;2023-02-01T11:33:48;11.35;;;1.90;;
24685;SDS011;12804;51.176;4.452;2023-02-01T11:36:21;11.93;;;2.72;;
24685;SDS011;12804;51.176;4.452;2023-02-01T11:50:08;12.55;;;2.20;;
24685;SDS011;12804;51.176;4.452;2023-02-01T11:55:33;13.68;;;1.80;;
24685;SDS011;12804;51.176;4.452;2023-02-01T12:04:10;11.38;;;2.20;;
24685;SDS011;12804;51.176;4.452;2023-02-01T12:06:48;15.05;;;2.40;;
24685;SDS011;12804;51.176;4.452;2023-02-01T12:09:32;12.20;;;1.98;;
24685;SDS011;12804;51.176;4.452;2023-02-01T12:15:17;11.13;;;1.80;;
24685;SDS011;12804;51.176;4.452;2023-02-01T12:20:46;10.50;;;1.95;;
24685;SDS011;12804;51.176;4.452;2023-02-01T12:35:10;9.93;;;1.65;;
24685;SDS011;12804;51.176;4.452;2023-02-01T12:44:23;11.30;;;2.00;;
24685;SDS011;12804;51.176;4.452;2023-02-01T12:47:20;15.02;;;1.90;;
24685;SDS011;12804;51.176;4.452;2023-02-01T12:49:48;12.18;;;2.00;;
24685;SDS011;12804;51.176;4.452;2023-02-01T12:57:54;12.07;;;1.70;;
24685;SDS011;12804;51.176;4.452;2023-02-01T13:03:11;12.77;;;1.73;;
24685;SDS011;12804;51.176;4.452;2023-02-01T13:06:06;9.15;;;1.67;;
24685;SDS011;12804;51.176;4.452;2023-02-01T13:08:41;11.73;;;1.90;;
24685;SDS011;12804;51.176;4.452;2023-02-01T13:11:15;10.23;;;1.50;;
24685;SDS011;12804;51.176;4.452;2023-02-01T13:13:52;8.57;;;1.92;;
24685;SDS011;12804;51.176;4.452;2023-02-01T13:16:43;11.27;;;1.85;;
24685;SDS011;12804;51.176;4.452;2023-02-01T13:21:51;14.75;;;2.60;;
24685;SDS011;12804;51.176;4.452;2023-02-01T13:24:27;7.97;;;2.08;;
24685;SDS011;12804;51.176;4.452;2023-02-01T13:27:10;16.75;;;1.92;;
24685;SDS011;12804;51.176;4.452;2023-02-01T13:30:02;13.73;;;2.47;;
24685;SDS011;12804;51.176;4.452;2023-02-01T13:35:36;11.10;;;2.10;;
24685;SDS011;12804;51.176;4.452;2023-02-01T13:43:40;17.15;;;2.85;;
24685;SDS011;12804;51.176;4.452;2023-02-01T13:46:09;12.43;;;1.88;;
24685;SDS011;12804;51.176;4.452;2023-02-01T13:51:12;16.95;;;2.47;;
24685;SDS011;12804;51.176;4.452;2023-02-01T13:53:43;8.55;;;2.17;;
24685;SDS011;12804;51.176;4.452;2023-02-01T13:56:20;10.70;;;1.90;;
24685;SDS011;12804;51.176;4.452;2023-02-01T13:58:49;9.75;;;1.80;;
24685;SDS011;12804;51.176;4.452;2023-02-01T14:11:35;9.20;;;1.70;;
24685;SDS011;12804;51.176;4.452;2023-02-01T14:16:41;12.00;;;2.47;;
24685;SDS011;12804;51.176;4.452;2023-02-01T14:19:08;11.13;;;2.08;;
24685;SDS011;12804;51.176;4.452;2023-02-01T14:24:24;10.23;;;1.83;;
24685;SDS011;12804;51.176;4.452;2023-02-01T14:26:52;14.15;;;2.45;;
24685;SDS011;12804;51.176;4.452;2023-02-01T14:29:33;14.85;;;2.70;;
24685;SDS011;12804;51.176;4.452;2023-02-01T14:32:05;11.80;;;2.20;;
24685;SDS011;12804;51.176;4.452;2023-02-01T14:39:57;10.50;;;2.25;;
24685;SDS011;12804;51.176;4.452;2023-02-01T14:47:51;13.77;;;2.25;;
24685;SDS011;12804;51.176;4.452;2023-02-01T15:01:24;15.23;;;2.45;;
24685;SDS011;12804;51.176;4.452;2023-02-01T15:07:25;11.45;;;2.58;;
24685;SDS011;12804;51.176;4.452;2023-02-01T15:09:37;18.02;;;2.83;;
24685;SDS011;12804;51.176;4.452;2023-02-01T15:19:56;12.43;;;2.45;;
24685;SDS011;12804;51.176;4.452;2023-02-01T15:22:24;12.57;;;2.33;;
24685;SDS011;12804;51.176;4.452;2023-02-01T15:24:57;14.27;;;2.40;;
24685;SDS011;12804;51.176;4.452;2023-02-01T15:27:24;10.90;;;2.63;;
24685;SDS011;12804;51.176;4.452;2023-02-01T15:29:51;10.88;;;2.03;;
24685;SDS011;12804;51.176;4.452;2023-02-01T15:32:27;14.70;;;3.03;;
24685;SDS011;12804;51.176;4.452;2023-02-01T15:35:04;17.60;;;2.58;;
24685;SDS011;12804;51.176;4.452;2023-02-01T15:37:30;11.95;;;2.03;;
24685;SDS011;12804;51.176;4.452;2023-02-01T15:40:17;15.60;;;3.50;;
24685;SDS011;12804;51.176;4.452;2023-02-01T15:42:51;19.17;;;2.88;;
24685;SDS011;12804;51.176;4.452;2023-02-01T15:45:19;17.10;;;2.65;;
24685;SDS011;12804;51.176;4.452;2023-02-01T15:47:48;13.88;;;2.60;;
24685;SDS011;12804;51.176;4.452;2023-02-01T15:50:18;16.70;;;2.65;;
24685;SDS011;12804;51.176;4.452;2023-02-01T15:52:49;16.45;;;3.33;;
24685;SDS011;12804;51.176;4.452;2023-02-01T15:55:21;18.00;;;3.15;;
24685;SDS011;12804;51.176;4.452;2023-02-01T15:57:56;12.52;;;2.72;;
24685;SDS011;12804;51.176;4.452;2023-02-01T16:00:29;21.70;;;3.53;;
24685;SDS011;12804;51.176;4.452;2023-02-01T16:03:20;18.45;;;3.38;;
24685;SDS011;12804;51.176;4.452;2023-02-01T16:05:57;16.27;;;2.83;;
24685;SDS011;12804;51.176;4.452;2023-02-01T16:08:26;20.13;;;3.38;;
24685;SDS011;12804;51.176;4.452;2023-02-01T16:10:54;16.42;;;3.33;;
24685;SDS011;12804;51.176;4.452;2023-02-01T16:13:27;16.23;;;3.10;;
24685;SDS011;12804;51.176;4.452;2023-02-01T16:15:52;24.67;;;5.68;;
24685;SDS011;12804;51.176;4.452;2023-02-01T16:18:18;13.65;;;3.53;;
24685;SDS011;12804;51.176;4.452;2023-02-01T16:20:47;27.85;;;8.00;;
24685;SDS011;12804;51.176;4.452;2023-02-01T16:23:13;14.90;;;3.45;;
24685;SDS011;12804;51.176;4.452;2023-02-01T16:25:39;21.92;;;7.70;;
24685;SDS011;12804;51.176;4.452;2023-02-01T16:28:05;15.20;;;3.15;;
24685;SDS011;12804;51.176;4.452;2023-02-01T16:30:31;19.33;;;3.83;;
24685;SDS011;12804;51.176;4.452;2023-02-01T16:32:58;17.45;;;4.47;;
24685;SDS011;12804;51.176;4.452;2023-02-01T16:38:04;17.77;;;3.67;;
24685;SDS011;12804;51.176;4.452;2023-02-01T16:40:37;18.40;;;4.97;;
24685;SDS011;12804;51.176;4.452;2023-02-01T16:43:14;15.27;;;3.83;;
24685;SDS011;12804;51.176;4.452;2023-02-01T16:45:45;20.73;;;4.68;;
24685;SDS011;12804;51.176;4.452;2023-02-01T16:48:25;19.30;;;3.78;;
24685;SDS011;12804;51.176;4.452;2023-02-01T16:50:54;14.10;;;3.40;;
24685;SDS011;12804;51.176;4.452;2023-02-01T16:53:22;17.80;;;3.38;;
24685;SDS011;12804;51.176;4.452;2023-02-01T16:55:49;16.02;;;3.25;;
24685;SDS011;12804;51.176;4.452;2023-02-01T16:58:17;17.90;;;3.70;;
24685;SDS011;12804;51.176;4.452;2023-02-01T17:00:44;19.90;;;3.88;;
24685;SDS011;12804;51.176;4.452;2023-02-01T17:03:11;16.38;;;3.10;;
24685;SDS011;12804;51.176;4.452;2023-02-01T17:05:48;15.05;;;3.25;;
24685;SDS011;12804;51.176;4.452;2023-02-01T17:08:17;21.88;;;3.72;;
24685;SDS011;12804;51.176;4.452;2023-02-01T17:10:47;16.90;;;3.33;;
24685;SDS011;12804;51.176;4.452;2023-02-01T17:13:14;19.13;;;3.85;;
24685;SDS011;12804;51.176;4.452;2023-02-01T17:15:43;15.02;;;3.20;;
24685;SDS011;12804;51.176;4.452;2023-02-01T17:18:15;20.38;;;3.33;;
24685;SDS011;12804;51.176;4.452;2023-02-01T17:20:42;19.38;;;3.88;;
24685;SDS011;12804;51.176;4.452;2023-02-01T17:23:08;18.42;;;4.53;;
24685;SDS011;12804;51.176;4.452;2023-02-01T17:25:34;18.08;;;5.15;;
24685;SDS011;12804;51.176;4.452;2023-02-01T17:28:00;18.95;;;3.50;;
24685;SDS011;12804;51.176;4.452;2023-02-01T17:30:25;15.75;;;2.92;;
24685;SDS011;12804;51.176;4.452;2023-02-01T17:32:51;19.45;;;4.13;;
24685;SDS011;12804;51.176;4.452;2023-02-01T17:35:20;15.85;;;3.15;;